Accueil
METAR-TAF:

METAR-TAF

Aéroports :

Aéroport de Gênes-Christophe Colomb

Gênes, Italie

latitude: 44-25N, longitude: 008-51E, altitude: 2 m

Observation

Le bulletin a été fait il y a 36 minutes, à 23:20 UTC
Vent 14 kt de sud/sud-est
Température 24°C
Humidité 83%
Pression 1014 hPa
Visibilité 10 km ou plus
Quelques nuages à une hauteur de 2500 ft
Nuages épars à une hauteur de 3400 ft

METAR: LIMJ 032320Z 15014KT 9999 FEW025 SCT034 24/21 Q1014

Heure: 01:56 (23:56 UTC)

Prévision

Le bulletin a été fait il y a 56 minutes, à 23:00 UTC
Prévision valable du 04 à 00 UTC au 04 à 24 UTC
Vent 10 kt de sud/sud-est
Visibilité 10 km ou plus
Nuages épars à une hauteur de 4000 ft
Temporairement
du 04 à 09 UTC au 04 à 18 UTC
Visibilité: 4000 m
orage, pluie
Evoluant progressivement
du 04 à 13 UTC au 04 à 15 UTC
Vent 12 kt de sud/sud-ouest

TAF: LIMJ 032300Z 0400/0424 15010KT 9999 SCT040 TEMPO 0409/0418 4000 TSRA BECMG 0413/0415 20012KT

Observations et prévisions météorologiques de plus de 4000 aéroports (messages METAR et TAF).

Les stations disponibles sont représentées par des disques jaunes et rouges sur la carte.

Passer la souris dessus pour voir le nom de la station.

Cliquer dessus pour voir les observations et prévisions météorologiques.

Pour changer de carte: cliquez sur les boutons verts avec une croix noire pour zoomer, sur le bouton vert avec un tiret pour effectuer un zoom arrière, ou sur les flèches vertes pour les cartes adjacentes.


METAR-TAF: